Time;durP1;ratioP1;P1;durP2;ratioP2;P2;SDS_P1;SDS_P2;PMS_P1;PMS_P2;Temp;Humidity;BMP_temperature;BMP_pressure;BME280_temperature;BME280_humidity;BME280_pressure;Samples;Min_cycle;Max_cycle;Signal;HPM_P1;HPM_P2
2021/12/29 00:01:57;;;;;;;118.75;10.02;;;;;;;;;;5068723;28;20056;-79
2021/12/29 00:04:25;;;;;;;102.20;9.20;;;;;;;;;;5068615;28;20434;-79
2021/12/29 00:06:51;;;;;;;122.60;10.57;;;;;;;;;;5070082;28;20045;-79
2021/12/29 00:09:17;;;;;;;93.93;8.75;;;;;;;;;;5068412;28;20120;-80
2021/12/29 00:11:43;;;;;;;82.90;8.10;;;;;;;;;;5069251;28;20061;-79
2021/12/29 00:14:10;;;;;;;85.43;9.13;;;;;;;;;;5068468;28;20110;-79
2021/12/29 00:16:36;;;;;;;112.63;8.63;;;;;;;;;;5051396;28;20178;-79
2021/12/29 00:19:06;;;;;;;118.65;9.77;;;;;;;;;;5068818;28;20072;-78
2021/12/29 00:21:33;;;;;;;88.70;7.72;;;;;;;;;;5068100;28;20446;-79
2021/12/29 00:23:59;;;;;;;123.63;8.95;;;;;;;;;;5051482;28;20049;-79
2021/12/29 00:26:29;;;;;;;111.30;8.55;;;;;;;;;;5051212;28;20083;-80
2021/12/29 00:28:59;;;;;;;113.20;8.40;;;;;;;;;;5068644;28;20076;-78
2021/12/29 00:31:29;;;;;;;102.72;8.32;;;;;;;;;;5068358;28;20588;-80
2021/12/29 00:33:55;;;;;;;99.88;8.00;;;;;;;;;;5052053;28;20132;-79
2021/12/29 00:36:21;;;;;;;95.70;8.80;;;;;;;;;;5051273;28;20040;-80
2021/12/29 00:38:47;;;;;;;110.13;9.00;;;;;;;;;;5068536;28;20513;-80
2021/12/29 00:41:14;;;;;;;106.45;8.00;;;;;;;;;;5068030;28;20127;-79
2021/12/29 00:43:40;;;;;;;95.07;8.00;;;;;;;;;;5067756;28;20040;-79
2021/12/29 00:46:12;;;;;;;89.00;7.95;;;;;;;;;;5069404;28;20032;-80
2021/12/29 00:48:41;;;;;;;89.82;7.75;;;;;;;;;;5068133;28;20442;-79
2021/12/29 00:51:07;;;;;;;85.30;7.35;;;;;;;;;;5069217;28;20036;-80
2021/12/29 00:53:33;;;;;;;64.68;6.25;;;;;;;;;;5071221;28;20048;-79
2021/12/29 00:56:00;;;;;;;76.95;7.10;;;;;;;;;;5072432;28;20141;-79
2021/12/29 00:58:26;;;;;;;67.95;6.45;;;;;;;;;;5055841;28;20496;-81
2021/12/29 01:00:52;;;;;;;66.97;6.55;;;;;;;;;;5072720;28;20488;-80
2021/12/29 01:03:19;;;;;;;53.67;6.40;;;;;;;;;;5072009;28;20045;-79
2021/12/29 01:05:45;;;;;;;64.65;6.78;;;;;;;;;;5071626;28;20102;-79
2021/12/29 01:08:11;;;;;;;51.95;7.53;;;;;;;;;;5072091;28;20469;-80
2021/12/29 01:10:41;;;;;;;66.97;7.05;;;;;;;;;;5071253;28;20515;-80
2021/12/29 01:13:09;;;;;;;65.35;7.30;;;;;;;;;;5071531;28;20083;-80
2021/12/29 01:15:48;;;;;;;61.75;7.60;;;;;;;;;;5070734;28;20048;-79
2021/12/29 01:18:14;;;;;;;57.03;7.93;;;;;;;;;;5071694;28;20040;-80
2021/12/29 01:20:40;;;;;;;67.25;7.60;;;;;;;;;;5054270;28;20044;-79
2021/12/29 01:23:06;;;;;;;72.03;8.27;;;;;;;;;;5071739;28;20492;-79
2021/12/29 01:25:32;;;;;;;76.05;8.77;;;;;;;;;;5071096;28;20036;-79
2021/12/29 01:27:58;;;;;;;83.35;9.70;;;;;;;;;;5054862;28;20330;-79
2021/12/29 01:30:25;;;;;;;86.20;10.30;;;;;;;;;;5071080;28;20044;-80
2021/12/29 01:32:52;;;;;;;88.78;10.80;;;;;;;;;;5054252;28;20072;-79
2021/12/29 01:35:18;;;;;;;77.72;10.10;;;;;;;;;;5055024;28;20393;-79
2021/12/29 01:37:44;;;;;;;71.68;10.68;;;;;;;;;;5070978;28;20052;-79
2021/12/29 01:40:12;;;;;;;86.80;11.57;;;;;;;;;;5038212;28;20127;-79
2021/12/29 01:42:38;;;;;;;76.90;11.38;;;;;;;;;;5070502;28;20124;-80
2021/12/29 01:45:05;;;;;;;81.85;11.57;;;;;;;;;;5072442;28;20047;-80
2021/12/29 01:47:32;;;;;;;73.90;11.70;;;;;;;;;;5070562;28;20040;-79
2021/12/29 01:50:00;;;;;;;67.47;11.65;;;;;;;;;;5052007;28;20052;-79
2021/12/29 01:52:30;;;;;;;69.15;12.07;;;;;;;;;;5052139;28;20052;-79
2021/12/29 01:54:56;;;;;;;66.60;12.82;;;;;;;;;;5052257;28;20063;-79
2021/12/29 01:57:22;;;;;;;87.40;15.35;;;;;;;;;;5052053;28;20045;-79
2021/12/29 01:59:49;;;;;;;85.03;14.88;;;;;;;;;;5034442;28;20048;-79
2021/12/29 02:02:15;;;;;;;89.88;15.00;;;;;;;;;;5050457;28;20045;-79
2021/12/29 02:04:42;;;;;;;76.35;14.55;;;;;;;;;;5050218;28;20048;-79
2021/12/29 02:07:08;;;;;;;65.38;14.20;;;;;;;;;;5050952;28;20037;-79
2021/12/29 02:09:36;;;;;;;70.55;14.18;;;;;;;;;;5084279;28;20482;-79
2021/12/29 02:12:04;;;;;;;76.95;15.02;;;;;;;;;;5050531;28;20500;-79
2021/12/29 02:14:30;;;;;;;73.78;14.35;;;;;;;;;;5067496;28;20048;-80
2021/12/29 02:16:56;;;;;;;65.30;14.52;;;;;;;;;;5052201;28;20467;-78
2021/12/29 02:19:25;;;;;;;66.20;13.48;;;;;;;;;;5050155;28;20137;-79
2021/12/29 02:22:02;;;;;;;52.03;13.27;;;;;;;;;;5066747;28;20041;-78
2021/12/29 02:24:40;;;;;;;51.05;13.20;;;;;;;;;;5066490;28;20040;-79
2021/12/29 02:27:07;;;;;;;53.85;12.88;;;;;;;;;;5050257;28;20091;-79
2021/12/29 02:29:34;;;;;;;44.75;11.20;;;;;;;;;;5050068;28;20068;-79
2021/12/29 02:32:00;;;;;;;47.40;11.95;;;;;;;;;;5068013;28;20071;-79
2021/12/29 02:34:27;;;;;;;49.67;12.20;;;;;;;;;;5069249;28;20040;-79
2021/12/29 02:36:54;;;;;;;52.63;11.85;;;;;;;;;;5036929;28;20040;-79
2021/12/29 02:39:22;;;;;;;43.60;11.35;;;;;;;;;;5053668;28;20048;-79
2021/12/29 02:41:53;;;;;;;54.08;13.35;;;;;;;;;;5069759;28;20044;-79
2021/12/29 02:44:25;;;;;;;48.00;11.73;;;;;;;;;;5069821;28;20044;-79
2021/12/29 02:46:51;;;;;;;44.05;11.30;;;;;;;;;;5069776;28;20044;-78
2021/12/29 02:49:18;;;;;;;56.35;12.32;;;;;;;;;;5052993;28;20249;-79
2021/12/29 02:51:44;;;;;;;42.30;11.55;;;;;;;;;;5069152;28;20053;-79
2021/12/29 02:54:10;;;;;;;42.45;10.77;;;;;;;;;;5053168;28;20048;-79
2021/12/29 02:56:36;;;;;;;45.15;11.70;;;;;;;;;;5069249;28;20089;-79
2021/12/29 02:59:03;;;;;;;41.08;10.60;;;;;;;;;;5069343;28;20044;-80
2021/12/29 03:01:29;;;;;;;46.40;10.60;;;;;;;;;;5049444;28;20121;-80
2021/12/29 03:03:56;;;;;;;43.53;11.40;;;;;;;;;;5068088;28;20151;-79
2021/12/29 03:06:23;;;;;;;41.13;11.50;;;;;;;;;;5067531;28;20119;-81
2021/12/29 03:08:49;;;;;;;51.65;12.23;;;;;;;;;;5069348;28;20506;-80
2021/12/29 03:11:15;;;;;;;52.88;11.68;;;;;;;;;;5068842;28;20557;-79
2021/12/29 03:13:42;;;;;;;45.40;12.30;;;;;;;;;;5051898;28;20040;-79
2021/12/29 03:16:08;;;;;;;48.05;11.85;;;;;;;;;;5051606;28;20044;-79
2021/12/29 03:18:34;;;;;;;42.55;11.98;;;;;;;;;;5070023;28;20495;-79
2021/12/29 03:21:01;;;;;;;49.15;12.68;;;;;;;;;;5070066;28;20040;-81
2021/12/29 03:23:27;;;;;;;43.17;12.82;;;;;;;;;;5068443;28;20040;-79
2021/12/29 03:25:54;;;;;;;51.08;13.18;;;;;;;;;;5068886;28;20477;-80
2021/12/29 03:28:21;;;;;;;43.00;12.77;;;;;;;;;;5068654;28;20045;-80
2021/12/29 03:30:50;;;;;;;44.83;14.27;;;;;;;;;;5068504;28;20067;-80
2021/12/29 03:33:17;;;;;;;54.90;14.73;;;;;;;;;;5068704;28;20086;-79
2021/12/29 03:35:44;;;;;;;53.42;15.73;;;;;;;;;;5069450;28;20040;-79
2021/12/29 03:38:11;;;;;;;55.58;15.48;;;;;;;;;;5068776;28;20041;-79
2021/12/29 03:40:38;;;;;;;54.95;15.88;;;;;;;;;;5051532;28;20032;-82
2021/12/29 03:43:05;;;;;;;56.03;15.50;;;;;;;;;;5068326;28;20136;-80
2021/12/29 03:45:32;;;;;;;49.35;15.20;;;;;;;;;;5069358;28;20040;-79
2021/12/29 03:47:58;;;;;;;55.08;16.52;;;;;;;;;;5068550;28;20047;-79
2021/12/29 03:50:24;;;;;;;57.65;15.75;;;;;;;;;;5067928;28;20036;-79
2021/12/29 03:52:51;;;;;;;57.17;17.33;;;;;;;;;;5068714;28;20520;-79
2021/12/29 03:55:17;;;;;;;60.10;17.58;;;;;;;;;;5068677;28;20876;-79
2021/12/29 03:57:43;;;;;;;67.03;18.10;;;;;;;;;;5035145;28;20048;-80
2021/12/29 04:00:12;;;;;;;61.05;18.33;;;;;;;;;;5051470;28;20044;-81
2021/12/29 04:02:38;;;;;;;69.32;18.92;;;;;;;;;;5068118;28;20468;-80
2021/12/29 04:05:05;;;;;;;72.30;19.05;;;;;;;;;;5067964;28;20043;-80
2021/12/29 04:07:32;;;;;;;64.97;18.73;;;;;;;;;;5068310;28;20488;-79
2021/12/29 04:09:58;;;;;;;65.40;19.67;;;;;;;;;;5068442;28;20044;-80
2021/12/29 04:12:24;;;;;;;70.57;20.00;;;;;;;;;;5068095;28;20089;-80
2021/12/29 04:14:50;;;;;;;76.43;19.15;;;;;;;;;;5051320;28;20045;-79
2021/12/29 04:17:18;;;;;;;72.15;19.23;;;;;;;;;;5051663;28;20048;-79
2021/12/29 04:22:31;;;;;;;74.20;18.95;;;;;;;;;;5067650;28;20052;-80
2021/12/29 04:24:58;;;;;;;75.00;19.55;;;;;;;;;;5051614;28;20083;-81
2021/12/29 04:27:25;;;;;;;81.45;19.30;;;;;;;;;;5070758;28;20121;-81
2021/12/29 04:29:51;;;;;;;73.75;19.15;;;;;;;;;;5072173;28;20395;-80
2021/12/29 04:32:18;;;;;;;81.43;19.02;;;;;;;;;;5055848;28;20036;-80
2021/12/29 04:34:44;;;;;;;81.78;18.60;;;;;;;;;;5071244;28;20109;-79
2021/12/29 04:37:10;;;;;;;79.22;19.00;;;;;;;;;;5055226;28;20048;-81
2021/12/29 04:39:36;;;;;;;67.72;17.63;;;;;;;;;;5071662;28;20500;-81
2021/12/29 04:42:02;;;;;;;76.70;19.02;;;;;;;;;;5071884;28;20044;-81
2021/12/29 04:44:28;;;;;;;65.07;18.23;;;;;;;;;;5071202;28;20519;-80
2021/12/29 04:46:57;;;;;;;70.00;17.80;;;;;;;;;;5071726;28;20037;-79
2021/12/29 04:49:27;;;;;;;67.55;17.85;;;;;;;;;;5071076;28;20049;-79
2021/12/29 04:52:03;;;;;;;69.82;18.10;;;;;;;;;;5055099;28;20462;-79
2021/12/29 04:54:29;;;;;;;71.72;17.30;;;;;;;;;;5071341;28;20059;-79
2021/12/29 04:56:56;;;;;;;66.70;17.55;;;;;;;;;;5072385;28;20056;-79
2021/12/29 04:59:23;;;;;;;74.07;17.60;;;;;;;;;;5071630;28;20499;-80
2021/12/29 05:01:49;;;;;;;66.68;17.15;;;;;;;;;;5066895;28;20037;-79
2021/12/29 05:04:57;;;;;;;62.60;16.70;;;;;;;;;;5070456;28;20040;-79
2021/12/29 05:09:52;;;;;;;65.15;15.57;;;;;;;;;;5071539;28;20052;-79
2021/12/29 05:12:18;;;;;;;66.65;15.75;;;;;;;;;;5071198;28;20057;-79
2021/12/29 05:14:45;;;;;;;65.68;15.55;;;;;;;;;;5054685;28;20480;-79
2021/12/29 05:17:11;;;;;;;65.82;15.85;;;;;;;;;;5071723;28;20071;-79
2021/12/29 05:19:37;;;;;;;67.32;15.55;;;;;;;;;;5070736;28;20083;-79
2021/12/29 05:22:04;;;;;;;58.30;14.20;;;;;;;;;;5071095;28;20040;-78
2021/12/29 05:24:30;;;;;;;56.30;13.82;;;;;;;;;;5070868;28;20251;-78
2021/12/29 05:26:56;;;;;;;58.00;13.77;;;;;;;;;;5071022;28;20110;-78
2021/12/29 05:29:22;;;;;;;59.72;13.30;;;;;;;;;;5070768;28;20076;-79
2021/12/29 05:31:48;;;;;;;63.53;14.57;;;;;;;;;;5054425;28;20403;-79
2021/12/29 05:34:14;;;;;;;52.25;13.55;;;;;;;;;;5054339;28;20055;-78
2021/12/29 05:36:40;;;;;;;55.20;12.98;;;;;;;;;;5070755;28;20070;-78
2021/12/29 05:39:08;;;;;;;51.08;12.48;;;;;;;;;;5069698;28;20094;-79
2021/12/29 05:41:35;;;;;;;54.58;12.55;;;;;;;;;;5070492;28;20052;-79
2021/12/29 05:44:01;;;;;;;57.70;13.13;;;;;;;;;;5070491;28;20036;-78
2021/12/29 05:46:27;;;;;;;55.85;12.25;;;;;;;;;;5053892;28;20062;-78
2021/12/29 05:48:53;;;;;;;43.33;10.80;;;;;;;;;;5070890;28;20457;-78
2021/12/29 05:51:19;;;;;;;67.13;12.57;;;;;;;;;;5070597;28;20130;-79
2021/12/29 05:53:45;;;;;;;55.60;11.65;;;;;;;;;;5069865;28;20053;-78
2021/12/29 05:56:11;;;;;;;56.55;12.32;;;;;;;;;;5054054;28;20523;-78
2021/12/29 05:58:38;;;;;;;48.85;11.68;;;;;;;;;;5070353;28;20093;-79
2021/12/29 06:01:04;;;;;;;47.08;11.23;;;;;;;;;;5053549;28;20044;-79
2021/12/29 06:03:30;;;;;;;52.97;10.95;;;;;;;;;;5069884;28;20124;-79
2021/12/29 06:05:57;;;;;;;49.75;10.52;;;;;;;;;;5053410;28;20048;-79
2021/12/29 06:08:23;;;;;;;55.53;10.32;;;;;;;;;;5069783;28;20041;-81
2021/12/29 06:10:49;;;;;;;60.53;10.52;;;;;;;;;;5070045;28;20068;-79
2021/12/29 06:13:15;;;;;;;47.95;10.18;;;;;;;;;;5070211;28;20060;-80
2021/12/29 06:15:41;;;;;;;51.55;10.25;;;;;;;;;;5069732;28;20083;-80
2021/12/29 06:18:08;;;;;;;60.47;11.18;;;;;;;;;;5070157;28;20131;-80
2021/12/29 06:20:38;;;;;;;58.65;10.65;;;;;;;;;;5053212;28;20565;-80
2021/12/29 06:23:05;;;;;;;58.38;11.05;;;;;;;;;;5069818;28;20173;-79
2021/12/29 06:25:32;;;;;;;59.58;11.20;;;;;;;;;;5053189;28;20049;-79
2021/12/29 06:27:58;;;;;;;72.47;11.15;;;;;;;;;;5070164;28;20044;-80
2021/12/29 06:30:24;;;;;;;57.65;11.57;;;;;;;;;;5069134;28;20048;-80
2021/12/29 06:32:50;;;;;;;77.82;12.35;;;;;;;;;;5070841;28;20080;-80
2021/12/29 06:35:16;;;;;;;72.55;11.10;;;;;;;;;;5069873;28;20049;-80
2021/12/29 06:37:43;;;;;;;70.78;11.43;;;;;;;;;;5069196;28;20287;-79
2021/12/29 06:40:10;;;;;;;58.75;10.55;;;;;;;;;;5069556;28;20488;-79
2021/12/29 06:42:36;;;;;;;61.88;10.25;;;;;;;;;;5052854;28;20124;-78
2021/12/29 06:45:03;;;;;;;61.00;9.68;;;;;;;;;;5069442;28;20084;-78
2021/12/29 06:47:29;;;;;;;64.22;10.30;;;;;;;;;;5069082;28;20041;-78
2021/12/29 06:49:55;;;;;;;65.95;10.02;;;;;;;;;;5069803;28;20422;-80
2021/12/29 06:52:21;;;;;;;57.38;10.15;;;;;;;;;;5069179;28;20064;-80
2021/12/29 06:54:47;;;;;;;59.47;10.15;;;;;;;;;;5069964;28;20036;-80
2021/12/29 06:57:14;;;;;;;53.22;9.38;;;;;;;;;;5069204;28;20040;-80
2021/12/29 06:59:40;;;;;;;46.13;8.82;;;;;;;;;;5069000;28;20433;-80
2021/12/29 07:02:06;;;;;;;52.17;9.52;;;;;;;;;;5052437;28;20083;-80
2021/12/29 07:04:32;;;;;;;49.53;9.15;;;;;;;;;;5052304;28;20537;-80
2021/12/29 07:06:58;;;;;;;39.75;8.90;;;;;;;;;;5069328;28;20037;-80
2021/12/29 07:09:24;;;;;;;41.20;8.60;;;;;;;;;;5068956;28;20480;-78
2021/12/29 07:11:51;;;;;;;37.00;7.75;;;;;;;;;;5069006;28;20428;-80
2021/12/29 07:14:19;;;;;;;40.90;8.07;;;;;;;;;;5069181;28;20069;-78
2021/12/29 07:16:47;;;;;;;32.00;7.43;;;;;;;;;;5051742;28;20131;-78
2021/12/29 07:19:14;;;;;;;37.83;7.75;;;;;;;;;;5052022;28;20072;-80
2021/12/29 07:21:40;;;;;;;36.88;7.40;;;;;;;;;;5051883;28;20040;-79
2021/12/29 07:24:07;;;;;;;35.95;7.90;;;;;;;;;;5069909;28;20044;-79
2021/12/29 07:26:33;;;;;;;37.60;7.80;;;;;;;;;;5052079;28;20503;-78
2021/12/29 07:28:59;;;;;;;35.80;7.38;;;;;;;;;;5051988;28;20044;-79
2021/12/29 07:31:27;;;;;;;33.80;7.22;;;;;;;;;;5069664;28;20143;-80
2021/12/29 07:33:53;;;;;;;38.17;7.82;;;;;;;;;;5068400;28;20040;-79
2021/12/29 07:36:19;;;;;;;34.33;7.53;;;;;;;;;;5068820;28;20487;-79
2021/12/29 07:38:46;;;;;;;44.95;8.43;;;;;;;;;;5051706;28;20075;-80
2021/12/29 07:41:12;;;;;;;50.45;8.25;;;;;;;;;;5068395;28;20037;-80
2021/12/29 07:43:39;;;;;;;54.00;8.07;;;;;;;;;;5069549;28;20510;-80
2021/12/29 07:46:06;;;;;;;51.60;8.65;;;;;;;;;;5068446;28;20067;-80
2021/12/29 07:48:32;;;;;;;82.75;9.57;;;;;;;;;;5051172;28;20040;-79
2021/12/29 07:50:59;;;;;;;75.80;9.52;;;;;;;;;;5068720;28;20052;-80
2021/12/29 07:53:25;;;;;;;94.55;10.43;;;;;;;;;;5067985;28;20424;-80
2021/12/29 07:55:52;;;;;;;89.05;10.52;;;;;;;;;;5068368;28;20185;-80
2021/12/29 07:58:18;;;;;;;94.20;11.65;;;;;;;;;;5068598;28;20542;-78
2021/12/29 08:00:44;;;;;;;73.72;10.13;;;;;;;;;;5051004;28;20399;-78
2021/12/29 08:03:12;;;;;;;63.22;10.27;;;;;;;;;;5035157;28;20044;-78
2021/12/29 08:05:39;;;;;;;73.40;11.05;;;;;;;;;;5068071;28;20168;-78
2021/12/29 08:08:06;;;;;;;68.25;10.75;;;;;;;;;;5069784;28;20124;-78
2021/12/29 08:10:33;;;;;;;73.63;10.55;;;;;;;;;;5067622;28;20106;-78
2021/12/29 08:13:00;;;;;;;66.18;10.63;;;;;;;;;;5068418;28;20515;-78
2021/12/29 08:15:26;;;;;;;67.35;10.25;;;;;;;;;;5050647;28;20234;-78
2021/12/29 08:17:52;;;;;;;71.40;11.07;;;;;;;;;;5068415;28;20048;-78
2021/12/29 08:20:19;;;;;;;68.32;10.73;;;;;;;;;;5068913;28;20047;-78
2021/12/29 08:22:45;;;;;;;54.25;10.52;;;;;;;;;;5067855;28;20045;-78
2021/12/29 08:25:11;;;;;;;59.78;10.05;;;;;;;;;;5051746;28;20492;-78
2021/12/29 08:27:37;;;;;;;63.17;11.48;;;;;;;;;;5067856;28;20040;-78
2021/12/29 08:30:05;;;;;;;62.28;11.00;;;;;;;;;;5051239;28;20063;-78
2021/12/29 08:32:32;;;;;;;51.67;10.57;;;;;;;;;;5051328;28;20131;-78
2021/12/29 08:34:58;;;;;;;58.47;11.80;;;;;;;;;;5051547;28;20044;-78
2021/12/29 08:37:24;;;;;;;53.17;10.23;;;;;;;;;;5069272;28;20559;-78
2021/12/29 08:39:50;;;;;;;46.03;9.75;;;;;;;;;;5068599;28;20365;-78
2021/12/29 08:42:16;;;;;;;36.50;8.45;;;;;;;;;;5067811;28;20090;-78
2021/12/29 08:44:42;;;;;;;38.53;8.80;;;;;;;;;;5051314;28;20519;-78
2021/12/29 08:47:09;;;;;;;40.47;8.45;;;;;;;;;;5068002;28;20388;-78
2021/12/29 08:49:35;;;;;;;34.95;8.38;;;;;;;;;;5067463;28;20043;-78
2021/12/29 08:52:01;;;;;;;41.15;8.70;;;;;;;;;;5068190;28;20083;-78
2021/12/29 08:54:27;;;;;;;30.92;7.72;;;;;;;;;;5051189;28;20442;-78
2021/12/29 08:56:54;;;;;;;33.92;7.68;;;;;;;;;;5067878;28;20041;-78
2021/12/29 08:59:21;;;;;;;30.38;7.38;;;;;;;;;;5067612;28;20094;-78
2021/12/29 09:01:47;;;;;;;28.25;7.40;;;;;;;;;;5067737;28;20123;-78
2021/12/29 09:04:14;;;;;;;27.08;7.63;;;;;;;;;;5069072;28;20049;-78
2021/12/29 09:06:40;;;;;;;27.25;7.50;;;;;;;;;;5067564;28;20044;-78
2021/12/29 09:09:06;;;;;;;21.48;7.05;;;;;;;;;;5069278;28;20123;-79
2021/12/29 09:11:32;;;;;;;22.70;6.70;;;;;;;;;;5050763;28;20060;-78
2021/12/29 09:14:03;;;;;;;19.73;6.40;;;;;;;;;;5069618;28;20109;-78
2021/12/29 09:16:29;;;;;;;22.02;6.72;;;;;;;;;;5070910;28;20090;-79
2021/12/29 09:18:55;;;;;;;20.00;6.22;;;;;;;;;;5071105;28;20394;-78
2021/12/29 09:21:21;;;;;;;20.05;6.13;;;;;;;;;;5054663;28;20102;-79
2021/12/29 09:23:48;;;;;;;20.90;5.95;;;;;;;;;;5054379;28;20425;-78
2021/12/29 09:26:15;;;;;;;23.60;5.55;;;;;;;;;;5070956;28;20036;-78
2021/12/29 09:28:45;;;;;;;17.77;6.10;;;;;;;;;;5070487;28;20052;-78
2021/12/29 09:31:14;;;;;;;20.23;6.10;;;;;;;;;;5054461;28;20036;-80
2021/12/29 09:33:40;;;;;;;24.02;6.20;;;;;;;;;;5070683;28;20051;-80
2021/12/29 09:36:06;;;;;;;26.95;6.72;;;;;;;;;;5054805;28;20044;-78
2021/12/29 09:38:35;;;;;;;24.48;6.10;;;;;;;;;;5054050;28;20036;-80
2021/12/29 09:41:02;;;;;;;21.58;6.15;;;;;;;;;;5054372;28;20037;-78
2021/12/29 09:43:28;;;;;;;25.77;6.40;;;;;;;;;;5070741;28;20098;-78
2021/12/29 09:45:54;;;;;;;29.85;6.93;;;;;;;;;;5054949;28;20040;-78
2021/12/29 09:48:21;;;;;;;20.08;6.70;;;;;;;;;;5071129;28;20496;-78
2021/12/29 09:50:47;;;;;;;20.77;6.28;;;;;;;;;;5070869;28;20045;-78
2021/12/29 09:53:14;;;;;;;23.35;5.82;;;;;;;;;;5071038;28;20056;-80
2021/12/29 09:55:40;;;;;;;25.58;6.13;;;;;;;;;;5070201;28;20072;-80
2021/12/29 09:58:07;;;;;;;27.48;5.85;;;;;;;;;;5070672;28;20040;-80
2021/12/29 10:00:38;;;;;;;21.75;5.68;;;;;;;;;;5054129;28;20106;-80
2021/12/29 10:03:06;;;;;;;23.15;6.25;;;;;;;;;;5070775;28;20048;-80
2021/12/29 10:05:33;;;;;;;25.95;6.05;;;;;;;;;;5070128;28;20056;-80
2021/12/29 10:08:05;;;;;;;27.25;6.30;;;;;;;;;;5053759;28;20404;-80
2021/12/29 10:10:32;;;;;;;31.77;6.35;;;;;;;;;;5070489;28;20047;-78
2021/12/29 10:12:59;;;;;;;31.58;6.30;;;;;;;;;;5071706;28;20084;-78
2021/12/29 10:15:31;;;;;;;30.67;6.65;;;;;;;;;;5069966;28;20086;-78
2021/12/29 10:18:01;;;;;;;27.23;6.43;;;;;;;;;;5070446;28;20048;-78
2021/12/29 10:20:27;;;;;;;31.95;6.57;;;;;;;;;;5053354;28;20048;-77
2021/12/29 10:22:58;;;;;;;33.75;7.15;;;;;;;;;;5070292;28;20040;-78
2021/12/29 10:25:27;;;;;;;27.25;7.03;;;;;;;;;;5069868;28;20040;-80
2021/12/29 10:27:53;;;;;;;29.27;7.05;;;;;;;;;;5053544;28;20392;-80
2021/12/29 10:30:21;;;;;;;33.17;7.80;;;;;;;;;;5069785;28;20044;-80
2021/12/29 10:32:47;;;;;;;35.95;7.50;;;;;;;;;;5069271;28;20076;-80
2021/12/29 10:35:21;;;;;;;37.08;6.70;;;;;;;;;;5070031;28;20066;-78
2021/12/29 10:37:48;;;;;;;31.98;6.78;;;;;;;;;;5069617;28;20055;-78
2021/12/29 10:40:24;;;;;;;26.77;7.00;;;;;;;;;;5070049;28;20040;-79
2021/12/29 10:42:55;;;;;;;24.17;6.38;;;;;;;;;;5069952;28;20084;-79
2021/12/29 10:45:28;;;;;;;21.67;6.03;;;;;;;;;;5070044;28;20496;-78
2021/12/29 10:47:54;;;;;;;25.42;5.65;;;;;;;;;;5069791;28;20045;-79
2021/12/29 10:50:20;;;;;;;24.10;5.55;;;;;;;;;;5053488;28;20047;-79
2021/12/29 10:52:50;;;;;;;21.60;5.70;;;;;;;;;;5053220;28;20452;-78
2021/12/29 10:55:31;;;;;;;20.10;5.38;;;;;;;;;;5069938;28;20047;-79
2021/12/29 10:58:18;;;;;;;28.48;5.32;;;;;;;;;;5069785;28;20105;-79
2021/12/29 11:00:49;;;;;;;23.05;5.95;;;;;;;;;;5052425;28;20044;-78
2021/12/29 11:03:17;;;;;;;16.50;5.28;;;;;;;;;;5069572;28;20044;-79
2021/12/29 11:05:47;;;;;;;17.10;5.05;;;;;;;;;;5069390;28;20037;-81
2021/12/29 11:08:13;;;;;;;20.48;4.68;;;;;;;;;;5070823;28;20053;-78
2021/12/29 11:10:40;;;;;;;19.52;4.80;;;;;;;;;;5070209;28;20032;-78
2021/12/29 11:13:07;;;;;;;17.88;4.82;;;;;;;;;;5069455;28;20523;-80
2021/12/29 11:15:37;;;;;;;18.88;4.78;;;;;;;;;;5069298;28;20064;-81
2021/12/29 11:18:06;;;;;;;21.98;5.32;;;;;;;;;;5069679;28;20404;-80
2021/12/29 11:20:33;;;;;;;19.17;5.20;;;;;;;;;;5070247;28;20045;-81
2021/12/29 11:23:05;;;;;;;15.80;5.00;;;;;;;;;;5070807;28;20052;-81
2021/12/29 11:25:32;;;;;;;23.20;6.40;;;;;;;;;;5068818;28;20044;-81
2021/12/29 11:28:00;;;;;;;16.83;4.57;;;;;;;;;;5070164;28;20048;-81
2021/12/29 11:30:27;;;;;;;17.67;5.65;;;;;;;;;;5068689;28;20048;-80
2021/12/29 11:32:53;;;;;;;16.60;5.40;;;;;;;;;;5069206;28;20055;-80
2021/12/29 11:35:20;;;;;;;18.20;4.88;;;;;;;;;;5068563;28;20155;-80
2021/12/29 11:37:47;;;;;;;17.05;4.57;;;;;;;;;;5068804;28;20075;-80
2021/12/29 11:40:18;;;;;;;16.17;4.95;;;;;;;;;;5068877;28;20048;-81
2021/12/29 11:42:44;;;;;;;18.42;4.65;;;;;;;;;;5068580;28;20042;-80
2021/12/29 11:45:11;;;;;;;16.30;4.60;;;;;;;;;;5068823;28;20127;-80
2021/12/29 11:47:38;;;;;;;13.57;4.97;;;;;;;;;;5051951;28;20063;-80
2021/12/29 11:50:05;;;;;;;16.98;5.53;;;;;;;;;;5069555;28;20048;-80
2021/12/29 11:52:31;;;;;;;18.80;5.22;;;;;;;;;;5068945;28;20044;-81
2021/12/29 11:55:06;;;;;;;16.80;5.35;;;;;;;;;;5069702;28;20064;-79
2021/12/29 11:57:33;;;;;;;18.75;5.78;;;;;;;;;;5068990;28;20060;-78
2021/12/29 12:00:25;;;;;;;15.27;5.22;;;;;;;;;;5068652;28;20127;-79
2021/12/29 12:02:53;;;;;;;18.63;5.85;;;;;;;;;;5050064;28;20408;-78
2021/12/29 12:05:24;;;;;;;17.92;5.80;;;;;;;;;;5068839;28;20488;-78
2021/12/29 12:07:51;;;;;;;16.83;4.88;;;;;;;;;;5068876;28;20044;-81
2021/12/29 12:10:28;;;;;;;18.23;5.95;;;;;;;;;;5068716;28;20076;-81
2021/12/29 12:12:55;;;;;;;17.52;5.75;;;;;;;;;;5068383;28;20057;-78
2021/12/29 12:15:36;;;;;;;21.08;6.30;;;;;;;;;;5068365;28;20052;-78
2021/12/29 12:18:09;;;;;;;22.35;6.30;;;;;;;;;;5068684;28;20078;-78
2021/12/29 12:20:40;;;;;;;19.48;6.22;;;;;;;;;;5051894;28;20044;-78
2021/12/29 12:23:06;;;;;;;18.92;6.35;;;;;;;;;;5068766;28;20079;-79
2021/12/29 12:25:33;;;;;;;18.10;6.50;;;;;;;;;;5051607;28;20045;-78
2021/12/29 12:28:03;;;;;;;26.00;7.18;;;;;;;;;;5069820;28;20482;-79
2021/12/29 12:30:38;;;;;;;20.38;6.38;;;;;;;;;;5068280;28;20040;-78
2021/12/29 12:33:17;;;;;;;27.38;7.97;;;;;;;;;;5051905;28;20044;-78
2021/12/29 12:35:48;;;;;;;23.52;7.53;;;;;;;;;;5068484;28;20510;-78
2021/12/29 12:38:32;;;;;;;27.35;7.30;;;;;;;;;;5068501;28;20040;-80
2021/12/29 12:41:09;;;;;;;28.83;7.75;;;;;;;;;;5068138;28;20053;-80
2021/12/29 12:43:37;;;;;;;22.20;7.03;;;;;;;;;;5051355;28;20045;-78
2021/12/29 12:46:03;;;;;;;25.05;7.15;;;;;;;;;;5068192;28;20041;-80
2021/12/29 12:48:30;;;;;;;24.48;7.07;;;;;;;;;;5053987;28;20036;-78
2021/12/29 12:50:57;;;;;;;20.27;7.72;;;;;;;;;;5072584;28;20496;-78
2021/12/29 12:53:31;;;;;;;26.73;8.07;;;;;;;;;;5072281;28;20133;-78
2021/12/29 12:55:58;;;;;;;29.10;9.68;;;;;;;;;;5073467;28;20033;-79
2021/12/29 12:58:25;;;;;;;26.88;9.00;;;;;;;;;;5072228;28;20339;-78
2021/12/29 13:00:56;;;;;;;35.22;10.10;;;;;;;;;;5072134;28;20040;-78
2021/12/29 13:03:24;;;;;;;24.60;8.77;;;;;;;;;;5071831;28;20076;-80
2021/12/29 13:05:57;;;;;;;30.67;9.73;;;;;;;;;;5055221;28;20044;-80
2021/12/29 13:08:28;;;;;;;22.85;9.48;;;;;;;;;;5072311;28;20527;-79
2021/12/29 13:10:59;;;;;;;24.95;9.20;;;;;;;;;;5054938;28;20042;-78
2021/12/29 13:13:28;;;;;;;32.75;10.00;;;;;;;;;;5071719;28;20611;-79
2021/12/29 13:15:55;;;;;;;28.35;10.40;;;;;;;;;;5071879;28;20107;-78
2021/12/29 13:18:22;;;;;;;32.40;10.55;;;;;;;;;;5071544;28;20063;-76
2021/12/29 13:20:49;;;;;;;34.47;11.90;;;;;;;;;;5071374;28;20067;-80
2021/12/29 13:23:19;;;;;;;35.20;11.82;;;;;;;;;;5071328;28;20499;-80
2021/12/29 13:25:46;;;;;;;28.20;11.20;;;;;;;;;;5071724;28;20040;-80
2021/12/29 13:28:13;;;;;;;30.98;11.52;;;;;;;;;;5071244;28;20051;-80
2021/12/29 13:31:05;;;;;;;35.53;12.05;;;;;;;;;;5070912;28;20059;-80
2021/12/29 13:33:33;;;;;;;31.38;12.10;;;;;;;;;;5071066;28;20071;-81
2021/12/29 13:35:59;;;;;;;30.63;11.90;;;;;;;;;;5071476;28;20041;-80
2021/12/29 13:38:26;;;;;;;29.80;11.75;;;;;;;;;;5072870;28;20040;-80
2021/12/29 13:40:57;;;;;;;25.55;11.68;;;;;;;;;;5071592;28;20069;-80
2021/12/29 13:43:25;;;;;;;22.60;11.35;;;;;;;;;;5071037;28;20047;-80
2021/12/29 13:45:54;;;;;;;27.10;11.63;;;;;;;;;;5055187;28;20047;-80
2021/12/29 13:48:21;;;;;;;30.10;11.50;;;;;;;;;;5054956;28;20053;-80
2021/12/29 13:51:05;;;;;;;24.05;11.63;;;;;;;;;;5070337;28;20068;-80
2021/12/29 13:53:32;;;;;;;49.00;22.70;;;;;;;;;;5070950;28;20472;-80
2021/12/29 13:56:04;;;;;;;29.00;15.50;;;;;;;;;;5054270;28;20167;-78
2021/12/29 13:58:30;;;;;;;27.85;12.65;;;;;;;;;;5070246;28;20123;-78
2021/12/29 14:00:57;;;;;;;26.52;11.73;;;;;;;;;;5054223;28;20056;-78
2021/12/29 14:03:23;;;;;;;24.33;12.55;;;;;;;;;;5054408;28;20083;-78
2021/12/29 14:05:49;;;;;;;27.63;11.85;;;;;;;;;;5070926;28;20484;-78
2021/12/29 14:08:17;;;;;;;29.08;12.85;;;;;;;;;;5070944;28;20051;-78
2021/12/29 14:10:44;;;;;;;27.33;13.73;;;;;;;;;;5053756;28;20400;-78
2021/12/29 14:13:20;;;;;;;23.33;13.52;;;;;;;;;;5070650;28;20091;-78
2021/12/29 14:15:47;;;;;;;;;;;;;;;;;;5070938;28;20047;-78
2021/12/29 14:18:22;;;;;;;33.00;13.07;;;;;;;;;;5070047;28;19920;-78
2021/12/29 14:20:53;;;;;;;31.25;13.70;;;;;;;;;;5070071;28;20044;-78
2021/12/29 14:23:25;;;;;;;27.00;14.25;;;;;;;;;;5053462;28;20037;-78
2021/12/29 14:25:51;;;;;;;24.40;13.73;;;;;;;;;;5070520;28;20036;-78
2021/12/29 14:28:19;;;;;;;33.17;14.02;;;;;;;;;;5069972;28;20037;-81
2021/12/29 14:30:56;;;;;;;30.15;14.20;;;;;;;;;;5069388;28;20097;-81
2021/12/29 14:33:25;;;;;;;26.75;13.80;;;;;;;;;;5069996;28;20044;-78